EBAW/ANR METAR and TAF weather

Enter ICAO airport designator
Station Type Date Time Source
EBAW METAR 2019/08/19 22:20 UTC NOAA

EBAW 192220Z AUTO 23007KT CAVOK 15/10 Q1019


Station Type Date Time Source
EBAW Decoded METAR 2019/08/19 22:20 UTC NOAA

Antwerpen / Deurne, Belgium (EBAW) 51-12N 004-28E 14M
Aug 19, 2019 - 06:20 PM EDT / 2019.08.19 2220 UTC
Wind: from the SW (230 degrees) at 8 MPH (7 KT):0
Visibility: greater than 7 mile(s):0
Temperature: 59 F (15 C)
Dew Point: 50 F (10 C)
Relative Humidity: 72%
Pressure (altimeter): 30.09 in. Hg (1019 hPa)
ob: EBAW 192220Z AUTO 23007KT CAVOK 15/10 Q1019
cycle: 22

Station Type Date Time Source
EBAW TAF 2019/07/25 18:27 UTC NOAA

TAF TAF EBAW 251700Z 2518/2606 11007KT CAVOK PROB30
TEMPO 2518/2520 VRB15G30KT 3500 SHRA TSRA

Example: see airport list